Huvudsida
METAR-TAF:

METAR-TAF

Flygplatser :

Vamdrup

Kolding, Danmark

latitud: 55-26N, longitud: 009-20E, höjd: 44 m

Aktuellt väderrapport

Denna rapport gjordes för 15 minuter sedan, klockan 19:50 UTC
Vind 14 kt från väst/sydväst
Temperatur 14°C
Fuktighet 88%
Tryck 1022 hPa

METAR: EKVD 211950Z AUTO 24014KT //// ///////// 14/12 Q1022

Tid: 22:05 (20:05 UTC)

Väderprognos

Denna rapport gjordes för 11 timmar och 13 minuter sedan, klockan 08:52 UTC
Prognos gäller från 21 kl. 09 UTC till 21 kl. 15 UTC
Vind 10 kt från sydväst
Sikt 10 km eller mer
Brutna moln på en höjd av 1500 ft
Temporärt
från 21 kl. 09 UTC till 21 kl. 15 UTC
Brutna moln på en höjd av 800 ft

TAF: EKVD 210852Z 2109/2115 22010KT 9999 BKN015 TEMPO 2109/2115 BKN008

Aktuella väderrapporter och prognoser från 4000 flygplatser (METAR- och TAF-rapporter).

De tillgängliga stationerna syns som gula och röda prickar på kartan.

För musen över prickarna för att se namnen på stationerna.

Klicka sedan för att få väderrapporter och prognoser.

För att ändra kartan: Klicka på de gröna knapparna med ett svart kors på för att zooma in; den gröna knappen med ett streck på för att zooma ut; eller på de gröna pilarna för angränsande kartor.


METAR-TAF: